createdAt,value
2022-09-26T00:01:42.460Z,99.90
2022-09-26T00:04:22.372Z,99.90
2022-09-26T00:06:52.356Z,99.90
2022-09-26T00:09:21.256Z,99.90
2022-09-26T00:11:50.837Z,99.90
2022-09-26T00:14:23.000Z,99.90
2022-09-26T00:16:51.665Z,99.90
2022-09-26T00:19:20.266Z,99.90
2022-09-26T00:21:48.514Z,99.90
2022-09-26T00:24:17.079Z,99.90
2022-09-26T00:26:45.385Z,99.90
2022-09-26T00:29:15.661Z,99.90
2022-09-26T00:31:47.372Z,99.90
2022-09-26T00:34:18.556Z,99.90
2022-09-26T00:36:46.715Z,99.90
2022-09-26T00:39:16.661Z,99.90
2022-09-26T00:41:45.580Z,99.90
2022-09-26T00:44:43.776Z,99.90
2022-09-26T00:47:30.578Z,99.90
2022-09-26T00:50:03.979Z,99.90
2022-09-26T00:52:37.783Z,99.90
2022-09-26T00:55:08.807Z,99.90
2022-09-26T00:57:43.412Z,99.90
2022-09-26T01:00:15.706Z,99.90
2022-09-26T01:02:46.699Z,99.90
2022-09-26T01:05:20.163Z,99.90
2022-09-26T01:07:49.254Z,99.90
2022-09-26T01:10:17.352Z,99.90
2022-09-26T01:12:45.639Z,99.90
2022-09-26T01:15:15.442Z,99.90
2022-09-26T01:17:45.777Z,99.90
2022-09-26T01:20:34.659Z,99.90
2022-09-26T01:23:48.510Z,99.90
2022-09-26T01:27:11.045Z,99.90
2022-09-26T01:30:09.582Z,99.90
2022-09-26T01:33:18.415Z,99.90
2022-09-26T01:36:19.185Z,99.90
2022-09-26T01:39:02.060Z,99.90
2022-09-26T01:41:48.352Z,99.90
2022-09-26T01:44:31.539Z,99.90
2022-09-26T01:47:10.367Z,99.90
2022-09-26T01:49:49.799Z,99.90
2022-09-26T01:52:23.114Z,99.90
2022-09-26T01:54:56.684Z,99.90
2022-09-26T01:57:31.488Z,99.90
2022-09-26T02:00:07.963Z,99.90
2022-09-26T02:02:42.582Z,99.90
2022-09-26T02:05:19.036Z,99.90
2022-09-26T02:07:53.789Z,99.90
2022-09-26T02:10:28.883Z,99.90
2022-09-26T02:13:04.278Z,99.90
2022-09-26T02:15:35.308Z,99.90
2022-09-26T02:18:13.889Z,99.90
2022-09-26T02:20:48.726Z,99.90
2022-09-26T02:23:16.801Z,99.90
2022-09-26T02:25:44.932Z,99.90
2022-09-26T02:28:14.224Z,99.90
2022-09-26T02:30:44.279Z,99.90
2022-09-26T02:33:14.433Z,99.90
2022-09-26T02:35:55.437Z,99.90
2022-09-26T02:38:24.791Z,99.90
2022-09-26T02:41:02.131Z,99.90
2022-09-26T02:44:06.421Z,99.90
2022-09-26T02:46:54.372Z,99.90
2022-09-26T02:50:08.127Z,99.90
2022-09-26T02:52:47.258Z,99.90
2022-09-26T02:55:22.545Z,99.90
2022-09-26T02:58:05.514Z,99.90
2022-09-26T03:00:46.007Z,99.90
2022-09-26T03:03:20.867Z,99.90
2022-09-26T03:05:54.891Z,99.90
2022-09-26T03:08:27.187Z,99.90
2022-09-26T03:10:58.868Z,99.90
2022-09-26T03:13:29.190Z,99.90
2022-09-26T03:15:59.864Z,99.90
2022-09-26T03:18:35.459Z,99.90
2022-09-26T03:21:05.186Z,99.90
2022-09-26T03:23:33.423Z,99.90
2022-09-26T03:26:04.396Z,99.90
2022-09-26T03:28:37.423Z,99.90
2022-09-26T03:31:07.294Z,99.90
2022-09-26T03:33:35.342Z,99.90
2022-09-26T03:36:09.355Z,99.90
2022-09-26T03:38:37.345Z,99.90
2022-09-26T03:41:07.148Z,99.90
2022-09-26T03:43:35.146Z,99.90
2022-09-26T03:46:04.579Z,99.90
2022-09-26T03:48:33.236Z,99.90
2022-09-26T03:51:04.282Z,99.90
2022-09-26T03:53:35.056Z,99.90
2022-09-26T03:56:09.231Z,99.90
2022-09-26T03:58:37.907Z,99.90
2022-09-26T04:01:08.355Z,99.90
2022-09-26T04:03:38.245Z,99.90
2022-09-26T04:06:09.440Z,99.90
2022-09-26T04:08:41.304Z,99.90
2022-09-26T04:11:12.918Z,99.90
2022-09-26T04:13:52.383Z,99.90
2022-09-26T04:16:22.596Z,99.90
2022-09-26T04:18:50.899Z,99.90
2022-09-26T04:21:18.872Z,99.90
2022-09-26T04:23:49.511Z,99.90
2022-09-26T04:26:23.369Z,99.90
2022-09-26T04:28:54.837Z,99.90
2022-09-26T04:31:24.187Z,99.90
2022-09-26T04:33:54.763Z,99.90
2022-09-26T04:36:23.053Z,99.90
2022-09-26T04:38:52.369Z,99.90
2022-09-26T04:41:22.916Z,99.90
2022-09-26T04:43:51.122Z,99.90
2022-09-26T04:46:25.861Z,99.90
2022-09-26T04:49:00.277Z,99.90
2022-09-26T04:51:31.046Z,99.90
2022-09-26T04:54:00.783Z,99.90
2022-09-26T04:56:30.521Z,99.90
2022-09-26T04:58:59.922Z,99.90
2022-09-26T05:01:29.075Z,99.90
2022-09-26T05:03:58.261Z,99.90
2022-09-26T05:06:26.583Z,99.90
2022-09-26T05:08:54.917Z,99.90
2022-09-26T05:11:25.005Z,99.90
2022-09-26T05:13:54.011Z,99.90
2022-09-26T05:16:22.624Z,99.90
2022-09-26T05:18:51.786Z,99.90
2022-09-26T05:21:19.925Z,99.90
2022-09-26T05:24:05.426Z,99.90
2022-09-26T05:26:42.454Z,99.90
2022-09-26T05:29:11.787Z,99.90
2022-09-26T05:31:40.227Z,99.90
2022-09-26T05:34:15.426Z,99.90
2022-09-26T05:36:46.725Z,99.90
2022-09-26T05:39:28.641Z,99.90
2022-09-26T05:41:59.723Z,99.90
2022-09-26T05:44:28.253Z,99.90
2022-09-26T05:46:57.379Z,99.90
2022-09-26T05:49:25.910Z,99.90
2022-09-26T05:51:53.969Z,99.90
2022-09-26T05:54:21.985Z,99.90
2022-09-26T05:56:49.963Z,99.90
2022-09-26T05:59:19.573Z,99.90
2022-09-26T06:01:47.932Z,99.90
2022-09-26T06:04:15.941Z,99.90
2022-09-26T06:06:44.333Z,99.90
2022-09-26T06:09:12.546Z,99.90
2022-09-26T06:11:40.568Z,99.90
2022-09-26T06:14:10.102Z,99.90
2022-09-26T06:16:39.469Z,99.90
2022-09-26T06:19:07.651Z,99.90
2022-09-26T06:21:38.169Z,99.90
2022-09-26T06:24:06.809Z,99.90
2022-09-26T06:26:35.667Z,99.90
2022-09-26T06:29:03.822Z,99.90
2022-09-26T06:31:32.724Z,99.90
2022-09-26T06:34:02.407Z,99.90
2022-09-26T06:36:31.494Z,99.90
2022-09-26T06:38:59.465Z,99.90
2022-09-26T06:41:27.424Z,99.90
2022-09-26T06:43:55.702Z,99.90
2022-09-26T06:46:23.700Z,99.90
2022-09-26T06:48:51.705Z,99.90
2022-09-26T06:51:21.023Z,99.90
2022-09-26T06:53:49.104Z,99.90
2022-09-26T06:56:17.139Z,99.90
2022-09-26T06:58:45.303Z,99.90
2022-09-26T07:01:14.342Z,99.90
2022-09-26T07:03:45.694Z,99.90
2022-09-26T07:06:14.462Z,99.90
2022-09-26T07:09:01.562Z,99.90
2022-09-26T07:11:42.145Z,99.90
2022-09-26T07:14:18.682Z,99.90
2022-09-26T07:16:49.730Z,99.90
2022-09-26T07:19:18.526Z,99.90
2022-09-26T07:21:47.036Z,99.90
2022-09-26T07:24:16.353Z,99.90
2022-09-26T07:26:44.924Z,99.90
2022-09-26T07:29:12.935Z,99.90
2022-09-26T07:31:41.050Z,99.90
2022-09-26T07:34:10.222Z,99.90
2022-09-26T07:36:40.655Z,99.90
2022-09-26T07:39:08.670Z,99.90
2022-09-26T07:41:38.033Z,99.90
2022-09-26T07:47:11.586Z,99.90
2022-09-26T07:49:57.039Z,99.90
2022-09-26T07:52:25.232Z,99.90
2022-09-26T07:54:53.169Z,99.90
2022-09-26T07:57:22.487Z,99.90
2022-09-26T07:59:51.109Z,99.90
2022-09-26T08:02:22.646Z,99.90
2022-09-26T08:04:50.776Z,99.90
2022-09-26T08:07:18.721Z,99.90
2022-09-26T08:09:46.670Z,99.90
2022-09-26T08:12:14.962Z,99.90
2022-09-26T08:14:48.296Z,99.90
2022-09-26T08:17:16.746Z,99.90
2022-09-26T08:19:45.072Z,99.90
2022-09-26T08:22:14.465Z,99.90
2022-09-26T08:24:50.211Z,99.90
2022-09-26T08:27:18.326Z,99.90
2022-09-26T08:29:49.317Z,99.90
2022-09-26T08:32:18.409Z,99.90
2022-09-26T08:34:47.530Z,99.40
2022-09-26T08:37:16.146Z,97.90
2022-09-26T08:39:44.124Z,97.40
2022-09-26T08:42:31.289Z,96.40
2022-09-26T08:45:54.602Z,95.80
2022-09-26T08:48:50.513Z,97.10
2022-09-26T08:51:29.498Z,96.50
2022-09-26T08:54:05.047Z,95.70
2022-09-26T08:56:38.257Z,94.80
2022-09-26T08:59:13.823Z,95.20
2022-09-26T09:01:46.687Z,97.20
2022-09-26T09:04:18.583Z,94.20
2022-09-26T09:06:46.881Z,94.00
2022-09-26T09:09:18.042Z,94.20
2022-09-26T09:12:08.719Z,93.50
2022-09-26T09:15:20.613Z,93.90
2022-09-26T09:17:57.307Z,94.70
2022-09-26T09:20:39.644Z,95.50
2022-09-26T09:23:38.013Z,97.00
2022-09-26T09:29:30.727Z,97.70
2022-09-26T09:32:01.290Z,97.20
2022-09-26T09:34:38.331Z,96.90
2022-09-26T09:37:15.087Z,96.70
2022-09-26T09:39:48.421Z,97.60
2022-09-26T09:42:28.599Z,98.00
2022-09-26T09:45:02.268Z,98.40
2022-09-26T09:47:30.694Z,96.60
2022-09-26T09:50:00.702Z,97.60
2022-09-26T09:52:51.068Z,97.20
2022-09-26T09:55:37.564Z,97.60
2022-09-26T09:58:41.451Z,98.20
2022-09-26T10:01:17.049Z,97.90
2022-09-26T10:03:55.901Z,97.80
2022-09-26T10:06:46.165Z,98.20
2022-09-26T10:09:35.590Z,97.80
2022-09-26T10:12:17.719Z,99.00
2022-09-26T10:14:53.304Z,99.40
2022-09-26T10:17:26.588Z,99.50
2022-09-26T10:19:54.594Z,99.90
2022-09-26T10:22:32.732Z,99.90
2022-09-26T10:25:08.716Z,99.90
2022-09-26T10:27:39.750Z,99.90
2022-09-26T10:30:25.962Z,99.90
2022-09-26T10:32:58.852Z,99.90
2022-09-26T10:35:30.260Z,99.90
2022-09-26T10:38:07.176Z,99.90
2022-09-26T10:40:46.810Z,99.90
2022-09-26T10:43:30.374Z,99.90
2022-09-26T10:46:06.449Z,99.90
2022-09-26T10:48:48.774Z,99.90
2022-09-26T10:51:26.787Z,99.90
2022-09-26T10:54:04.283Z,99.90
2022-09-26T10:56:46.028Z,99.90
2022-09-26T10:59:17.591Z,99.90
2022-09-26T11:01:50.439Z,99.90
2022-09-26T11:04:37.611Z,99.90
2022-09-26T11:07:06.951Z,99.90
2022-09-26T11:09:38.224Z,99.90
2022-09-26T11:12:23.902Z,99.90
2022-09-26T11:14:56.822Z,99.90
2022-09-26T11:17:44.798Z,99.90
2022-09-26T11:20:25.464Z,99.90
2022-09-26T11:23:03.483Z,99.90
2022-09-26T11:25:43.156Z,99.90
2022-09-26T11:28:17.853Z,99.90
2022-09-26T11:30:48.702Z,99.90
2022-09-26T11:33:18.770Z,99.90
2022-09-26T11:36:02.775Z,99.90
2022-09-26T11:38:39.343Z,99.90
2022-09-26T11:41:36.384Z,99.90
2022-09-26T11:44:35.784Z,99.90
2022-09-26T11:47:56.017Z,99.90
2022-09-26T11:50:36.155Z,99.90
2022-09-26T11:53:21.676Z,99.90
2022-09-26T11:56:10.447Z,99.90
2022-09-26T11:58:47.836Z,99.90
2022-09-26T12:01:27.243Z,99.90
2022-09-26T12:04:21.598Z,99.90
2022-09-26T12:06:57.555Z,99.90
2022-09-26T12:09:50.538Z,99.90
2022-09-26T12:12:27.633Z,99.90
2022-09-26T12:15:14.837Z,99.90
2022-09-26T12:17:59.462Z,99.90
2022-09-26T12:20:39.597Z,99.90
2022-09-26T12:23:18.136Z,99.90
2022-09-26T12:26:09.859Z,99.90
2022-09-26T12:29:04.523Z,99.90
2022-09-26T12:32:01.615Z,99.90
2022-09-26T12:34:49.790Z,99.90
2022-09-26T12:37:45.434Z,99.90
2022-09-26T12:40:29.348Z,99.90
2022-09-26T12:43:31.544Z,99.90
2022-09-26T12:46:28.681Z,99.90
2022-09-26T12:49:17.547Z,99.90
2022-09-26T12:51:52.368Z,99.90
2022-09-26T12:54:50.554Z,99.90
2022-09-26T12:57:30.701Z,99.90
2022-09-26T13:00:20.712Z,99.90
2022-09-26T13:03:48.766Z,99.90
2022-09-26T13:07:22.260Z,99.90
2022-09-26T13:10:18.931Z,99.90
2022-09-26T13:13:11.978Z,99.90
2022-09-26T13:16:03.317Z,99.90
2022-09-26T13:18:39.895Z,99.90
2022-09-26T13:21:13.346Z,99.90
2022-09-26T13:23:53.813Z,99.90
2022-09-26T13:26:29.102Z,99.90
2022-09-26T13:29:17.259Z,99.90
2022-09-26T13:31:55.252Z,99.90
2022-09-26T13:34:32.028Z,99.90
2022-09-26T13:37:01.756Z,99.90
2022-09-26T13:39:43.442Z,99.90
2022-09-26T13:42:19.640Z,99.90
2022-09-26T13:45:00.665Z,99.90
2022-09-26T13:47:39.313Z,99.90
2022-09-26T13:50:23.179Z,99.90
2022-09-26T13:53:08.321Z,99.90
2022-09-26T13:55:37.862Z,99.90
2022-09-26T13:58:19.417Z,99.90
2022-09-26T14:00:53.283Z,99.90
2022-09-26T14:03:44.800Z,99.90
2022-09-26T14:06:34.028Z,99.90
2022-09-26T14:09:29.413Z,99.90
2022-09-26T14:12:34.542Z,99.90
2022-09-26T14:15:23.985Z,99.90
2022-09-26T14:18:26.375Z,99.90
2022-09-26T14:21:05.861Z,99.90
2022-09-26T14:23:42.172Z,99.90
2022-09-26T14:26:13.527Z,99.90
2022-09-26T14:28:52.859Z,99.90
2022-09-26T14:32:01.258Z,99.90
2022-09-26T14:34:42.080Z,99.90
2022-09-26T14:37:30.631Z,99.90
2022-09-26T14:40:34.168Z,99.90
2022-09-26T14:43:13.699Z,99.90
2022-09-26T14:46:02.302Z,99.90
2022-09-26T14:48:37.520Z,99.90
2022-09-26T14:51:23.242Z,99.90
2022-09-26T14:53:57.630Z,99.90
2022-09-26T14:56:46.422Z,99.90
2022-09-26T14:59:43.698Z,99.90
2022-09-26T15:02:51.807Z,99.90
2022-09-26T15:05:28.887Z,99.90
2022-09-26T15:08:00.454Z,99.90
2022-09-26T15:10:41.328Z,99.90
2022-09-26T15:13:23.647Z,99.90
2022-09-26T15:15:59.553Z,99.90
2022-09-26T15:18:38.458Z,99.90
2022-09-26T15:21:26.284Z,99.90
2022-09-26T15:23:57.327Z,99.90
2022-09-26T15:26:28.805Z,99.90
2022-09-26T15:28:58.247Z,99.90
2022-09-26T15:31:30.452Z,99.90
2022-09-26T15:34:05.781Z,99.90
2022-09-26T15:36:37.316Z,99.90
2022-09-26T15:39:42.081Z,99.90
2022-09-26T15:42:46.349Z,99.90
2022-09-26T15:45:33.445Z,99.90
2022-09-26T15:48:06.305Z,99.90
2022-09-26T15:50:41.568Z,99.90
2022-09-26T15:53:21.768Z,99.90
2022-09-26T15:55:54.994Z,99.90
2022-09-26T15:58:29.385Z,99.90
2022-09-26T16:01:00.329Z,99.90
2022-09-26T16:03:48.462Z,99.90
2022-09-26T16:06:29.202Z,99.90
2022-09-26T16:09:05.620Z,99.90
2022-09-26T16:11:34.771Z,99.90
2022-09-26T16:14:03.408Z,99.90
2022-09-26T16:16:34.100Z,99.90
2022-09-26T16:19:05.247Z,99.90
2022-09-26T16:21:37.545Z,99.90
2022-09-26T16:24:29.994Z,99.90
2022-09-26T16:26:58.876Z,99.90
2022-09-26T16:29:35.622Z,99.90
2022-09-26T16:32:05.605Z,99.90
2022-09-26T16:34:33.919Z,99.90
2022-09-26T16:37:03.562Z,99.90
2022-09-26T16:39:32.584Z,99.90
2022-09-26T16:42:05.671Z,99.90
2022-09-26T16:44:37.436Z,99.90
2022-09-26T16:47:20.266Z,99.90
2022-09-26T16:49:49.583Z,99.90
2022-09-26T16:52:30.551Z,99.90
2022-09-26T16:55:01.009Z,99.90
2022-09-26T16:57:32.781Z,99.90
2022-09-26T17:00:22.981Z,99.90
2022-09-26T17:02:51.356Z,99.90
2022-09-26T17:05:21.969Z,99.90
2022-09-26T17:07:52.011Z,99.90
2022-09-26T17:10:22.332Z,99.90
2022-09-26T17:12:52.897Z,99.90
2022-09-26T17:15:27.881Z,99.90
2022-09-26T17:17:57.757Z,99.90
2022-09-26T17:20:26.869Z,99.90
2022-09-26T17:22:56.380Z,99.90
2022-09-26T17:25:25.931Z,99.90
2022-09-26T17:27:57.939Z,99.90
2022-09-26T17:30:26.181Z,99.90
2022-09-26T17:32:54.671Z,99.90
2022-09-26T17:35:29.473Z,99.90
2022-09-26T17:37:59.766Z,99.90
2022-09-26T17:40:29.920Z,99.90
2022-09-26T17:43:01.657Z,99.90
2022-09-26T17:45:33.310Z,99.90
2022-09-26T17:48:04.877Z,99.90
2022-09-26T17:50:36.230Z,99.90
2022-09-26T17:53:09.182Z,99.90
2022-09-26T17:55:37.357Z,99.90
2022-09-26T17:58:09.306Z,99.90
2022-09-26T18:00:38.830Z,99.90
2022-09-26T18:03:10.685Z,99.90
2022-09-26T18:05:40.142Z,99.90
2022-09-26T18:08:19.153Z,99.90
2022-09-26T18:10:51.481Z,99.90
2022-09-26T18:13:25.054Z,99.90
2022-09-26T18:15:53.941Z,99.90
2022-09-26T18:18:24.019Z,99.90
2022-09-26T18:20:54.608Z,99.90
2022-09-26T18:23:27.894Z,99.90
2022-09-26T18:25:59.298Z,99.90
2022-09-26T18:28:27.674Z,99.90
2022-09-26T18:30:59.153Z,99.90
2022-09-26T18:33:29.066Z,99.90
2022-09-26T18:35:58.676Z,99.90
2022-09-26T18:38:28.282Z,99.90
2022-09-26T18:40:58.435Z,99.90
2022-09-26T18:43:31.627Z,99.90
2022-09-26T18:46:00.183Z,99.90
2022-09-26T18:48:33.833Z,99.90
2022-09-26T18:51:03.297Z,99.90
2022-09-26T18:53:37.123Z,99.90
2022-09-26T18:56:28.444Z,99.90
2022-09-26T18:58:57.656Z,99.90
2022-09-26T19:01:30.284Z,99.90
2022-09-26T19:04:02.428Z,99.90
2022-09-26T19:06:33.973Z,99.90
2022-09-26T19:09:06.253Z,99.90
2022-09-26T19:11:36.161Z,99.90
2022-09-26T19:14:15.378Z,99.90
2022-09-26T19:16:44.535Z,99.90
2022-09-26T19:19:13.197Z,99.90
2022-09-26T19:21:44.444Z,99.90
2022-09-26T19:24:21.104Z,99.90
2022-09-26T19:26:52.115Z,99.90
2022-09-26T19:29:33.094Z,99.90
2022-09-26T19:32:02.234Z,99.90
2022-09-26T19:34:32.901Z,99.90
2022-09-26T19:37:03.082Z,99.90
2022-09-26T19:39:32.796Z,99.90
2022-09-26T19:42:01.577Z,99.90
2022-09-26T19:44:33.020Z,99.90
2022-09-26T19:47:02.968Z,99.90
2022-09-26T19:49:32.641Z,99.90
2022-09-26T19:52:02.377Z,99.90
2022-09-26T19:54:31.887Z,99.90
2022-09-26T19:57:00.110Z,99.90
2022-09-26T19:59:28.274Z,99.90
2022-09-26T20:01:56.582Z,99.90
2022-09-26T20:04:25.087Z,99.90
2022-09-26T20:06:53.666Z,99.90
2022-09-26T20:09:21.830Z,99.90
2022-09-26T20:11:51.301Z,99.90
2022-09-26T20:14:25.628Z,99.90
2022-09-26T20:16:59.471Z,99.90
2022-09-26T20:19:35.520Z,99.90
2022-09-26T20:22:07.444Z,99.90
2022-09-26T20:24:38.307Z,99.90
2022-09-26T20:27:09.505Z,99.90
2022-09-26T20:29:56.242Z,99.90
2022-09-26T20:32:24.507Z,99.90
2022-09-26T20:34:52.639Z,99.90
2022-09-26T20:37:23.656Z,99.90
2022-09-26T20:39:52.633Z,99.90
2022-09-26T20:42:27.903Z,99.90
2022-09-26T20:44:56.666Z,99.90
2022-09-26T20:47:24.904Z,99.90
2022-09-26T20:49:56.787Z,99.90
2022-09-26T20:52:27.445Z,99.90
2022-09-26T20:54:57.632Z,99.90
2022-09-26T20:57:27.239Z,99.90
2022-09-26T20:59:55.360Z,99.90
2022-09-26T21:02:30.797Z,99.90
2022-09-26T21:05:00.802Z,99.90
2022-09-26T21:07:32.192Z,99.90
2022-09-26T21:10:01.755Z,99.90
2022-09-26T21:12:32.719Z,99.90
2022-09-26T21:15:00.833Z,99.90
2022-09-26T21:17:30.206Z,99.90
2022-09-26T21:19:59.113Z,99.90
2022-09-26T21:22:28.404Z,99.90
2022-09-26T21:24:59.250Z,99.90
2022-09-26T21:27:27.315Z,99.90
2022-09-26T21:29:56.767Z,99.90
2022-09-26T21:32:25.118Z,99.90
2022-09-26T21:34:59.311Z,99.90
2022-09-26T21:37:27.450Z,99.90
2022-09-26T21:39:55.825Z,99.90
2022-09-26T21:42:26.306Z,99.90
2022-09-26T21:44:59.560Z,99.90
2022-09-26T21:47:28.286Z,99.90
2022-09-26T21:49:57.321Z,99.90
2022-09-26T21:52:33.859Z,99.90
2022-09-26T21:55:03.218Z,99.90
2022-09-26T21:57:35.315Z,99.90
2022-09-26T22:00:08.599Z,99.90
2022-09-26T22:02:37.105Z,99.90
2022-09-26T22:05:06.033Z,99.90
2022-09-26T22:07:34.237Z,99.90
2022-09-26T22:10:02.664Z,99.90
2022-09-26T22:12:30.797Z,99.90
2022-09-26T22:14:59.400Z,99.90
2022-09-26T22:17:28.952Z,99.90
2022-09-26T22:19:57.066Z,99.90
2022-09-26T22:22:25.894Z,99.90
2022-09-26T22:24:54.397Z,99.90
2022-09-26T22:27:22.554Z,99.90
2022-09-26T22:29:50.702Z,99.90
2022-09-26T22:32:18.880Z,99.90
2022-09-26T22:34:49.111Z,99.90
2022-09-26T22:37:17.410Z,99.90
2022-09-26T22:39:45.616Z,99.90
2022-09-26T22:42:13.747Z,99.90
2022-09-26T22:44:41.915Z,99.90
2022-09-26T22:47:10.158Z,99.90
2022-09-26T22:49:38.267Z,99.90
2022-09-26T22:52:07.740Z,99.90
2022-09-26T22:54:35.910Z,99.90
2022-09-26T22:57:04.298Z,99.90
2022-09-26T22:59:32.430Z,99.90
2022-09-26T23:02:00.690Z,99.90
2022-09-26T23:04:46.831Z,99.90
2022-09-26T23:07:19.102Z,99.90
2022-09-26T23:09:47.278Z,99.90
2022-09-26T23:12:15.829Z,99.90
2022-09-26T23:14:44.040Z,99.90
2022-09-26T23:17:12.313Z,99.90
2022-09-26T23:19:40.740Z,99.90
2022-09-26T23:22:08.892Z,99.90
2022-09-26T23:24:38.419Z,99.90
2022-09-26T23:27:06.518Z,99.90
2022-09-26T23:29:34.645Z,99.90
2022-09-26T23:32:02.990Z,99.90
2022-09-26T23:34:31.223Z,99.90
2022-09-26T23:36:59.331Z,99.90
2022-09-26T23:39:27.459Z,99.90
2022-09-26T23:41:57.429Z,99.90
2022-09-26T23:44:25.836Z,99.90
2022-09-26T23:46:54.034Z,99.90
2022-09-26T23:49:22.254Z,99.90
2022-09-26T23:51:50.488Z,99.90
2022-09-26T23:54:18.625Z,99.90
2022-09-26T23:56:46.834Z,99.90
2022-09-26T23:59:16.457Z,99.90
